Homer, AK (99603)

6:12 AM AKDT on August 26, 2016 (GMT -0800)
KAKHOMER5 | | Change Station

Elev 1152 ft 59.67 °N, 151.49 °W | Updated 55 seconds ago

Clear
Clear
53.3 °F
Feels Like 53.3 °F
N
7.0
Wind Variable Wind from WNW
Gusts 9.0 mph

Today
High -- | Low -- °F
--% Chance of Precip.
Yesterday
High -- | Low -- °F
Precip. -- in
Pressure 30.27 in
Visibility 7.0 miles
Clouds Clear
Dew Point 51 °F
Humidity 92%
Rainfall 0.00 in
Snow Depth Not available.
6:49 AM 9:24 PM
Waning Crescent, 34% visible
METAR PAHO 261353Z 04003KT 7SM CLR 08/07 A3027 RMK SLP250 T00830072 $ VIA AUTODIAL
Pressure 30.27 in
Visibility 7.0 miles
Clouds Clear
Dew Point 51 °F
Humidity 92%
Rainfall 0.00 in
Snow Depth Not available.
6:49 AM 9:24 PM
Waning Crescent, 34% visible
METAR PAHO 261353Z 04003KT 7SM CLR 08/07 A3027 RMK SLP250 T00830072 $ VIA AUTODIAL

10-Day Weather Forecast

Almanac

Astronomy

Aug. 26, 2016 Rise Set
Actual Time
Civil Twilight
Nautical Twilight
Astronomical Twilight
Moon
Length of Visible Light
Length of Day
Tomorrow will be .
, % of the Moon is Illuminated

Today's Extremes

State Highs State Lows

Community

WunderPhotos

Upload Photos

1,935,084 photos uploaded!

WunderBlog® & News

Nearby

Air Quality

  Air Quality AQ Index Pollutant
Not available.

Snow Depth

Station Depth Elevation

Earthquake Activity

City Distance Mag. Time & Date
Minimum magnitude displayed is 2.5.

Coastal Water Temperatures

Place Temperature

Stations

Nearby Weather Stations

Station Location Temp. Windchill Dew Point Humidity Wind Precip. Elev Updated Type
                   

Watches & Warnings

There are currently no watches in effect.